createdAt,value
2023-12-09T00:00:35.955Z,6.18
2023-12-09T00:03:03.801Z,6.24
2023-12-09T00:05:31.667Z,6.24
2023-12-09T00:07:59.426Z,5.90
2023-12-09T00:10:26.182Z,6.08
2023-12-09T00:12:55.794Z,5.74
2023-12-09T00:15:23.705Z,5.34
2023-12-09T00:17:52.355Z,6.06
2023-12-09T00:20:20.241Z,6.14
2023-12-09T00:22:47.836Z,5.95
2023-12-09T00:25:15.782Z,6.01
2023-12-09T00:27:43.459Z,6.05
2023-12-09T00:30:12.985Z,6.01
2023-12-09T00:32:40.685Z,6.12
2023-12-09T00:35:09.067Z,6.32
2023-12-09T00:37:36.705Z,6.00
2023-12-09T00:40:04.830Z,5.90
2023-12-09T00:42:32.465Z,6.23
2023-12-09T00:45:00.266Z,6.37
2023-12-09T00:47:29.360Z,6.35
2023-12-09T00:49:57.047Z,6.27
2023-12-09T00:52:25.075Z,6.30
2023-12-09T00:54:52.846Z,6.24
2023-12-09T00:57:22.153Z,6.22
2023-12-09T00:59:49.958Z,6.27
2023-12-09T01:02:17.642Z,6.26
2023-12-09T01:04:46.927Z,6.27
2023-12-09T01:07:14.590Z,6.36
2023-12-09T01:09:42.292Z,6.38
2023-12-09T01:12:09.925Z,6.40
2023-12-09T01:14:37.536Z,6.46
2023-12-09T01:17:05.494Z,6.05
2023-12-09T01:19:33.223Z,6.22
2023-12-09T01:22:02.283Z,6.18
2023-12-09T01:24:29.962Z,6.33
2023-12-09T01:26:57.631Z,6.35
2023-12-09T01:29:25.248Z,6.44
2023-12-09T01:31:52.852Z,6.30
2023-12-09T01:34:20.601Z,6.18
2023-12-09T01:36:48.413Z,6.28
2023-12-09T01:39:18.324Z,6.26
2023-12-09T01:41:46.043Z,6.26
2023-12-09T01:44:13.667Z,6.35
2023-12-09T01:46:43.859Z,6.36
2023-12-09T01:49:12.401Z,6.33
2023-12-09T01:51:40.419Z,6.32
2023-12-09T01:54:08.681Z,6.50
2023-12-09T01:56:37.761Z,6.51
2023-12-09T01:59:05.982Z,6.42
2023-12-09T02:01:37.472Z,6.28
2023-12-09T02:04:05.579Z,6.39
2023-12-09T02:06:34.356Z,6.43
2023-12-09T02:09:02.176Z,6.45
2023-12-09T02:11:37.926Z,6.46
2023-12-09T02:14:10.423Z,6.47
2023-12-09T02:16:44.429Z,6.57
2023-12-09T02:19:15.833Z,6.62
2023-12-09T02:22:03.245Z,6.07
2023-12-09T02:24:32.671Z,6.33
2023-12-09T02:27:05.367Z,6.36
2023-12-09T02:29:37.177Z,6.55
2023-12-09T02:32:07.854Z,6.48
2023-12-09T02:34:39.631Z,6.13
2023-12-09T02:37:10.065Z,5.92
2023-12-09T02:39:39.813Z,6.18
2023-12-09T02:42:08.004Z,6.46
2023-12-09T02:44:37.087Z,6.42
2023-12-09T02:47:05.032Z,6.30
2023-12-09T02:49:32.804Z,6.37
2023-12-09T02:52:00.499Z,6.38
2023-12-09T02:54:28.152Z,6.15
2023-12-09T02:56:57.144Z,6.20
2023-12-09T02:59:24.851Z,6.29
2023-12-09T03:01:52.464Z,6.63
2023-12-09T03:04:20.158Z,6.81
2023-12-09T03:06:47.893Z,6.85
2023-12-09T03:09:15.724Z,6.77
2023-12-09T03:11:43.390Z,6.69
2023-12-09T03:14:12.477Z,6.72
2023-12-09T03:16:40.272Z,6.51
2023-12-09T03:19:08.228Z,6.34
2023-12-09T03:21:36.025Z,6.57
2023-12-09T03:24:03.794Z,6.70
2023-12-09T03:26:31.531Z,6.27
2023-12-09T03:28:59.244Z,6.48
2023-12-09T03:31:28.352Z,6.44
2023-12-09T03:33:56.102Z,6.23
2023-12-09T03:36:24.019Z,6.04
2023-12-09T03:38:51.679Z,6.09
2023-12-09T03:41:19.656Z,6.17
2023-12-09T03:43:48.156Z,6.20
2023-12-09T03:46:15.805Z,6.20
2023-12-09T03:48:44.873Z,6.03
2023-12-09T03:51:12.618Z,6.14
2023-12-09T03:53:40.290Z,5.91
2023-12-09T03:56:08.880Z,6.15
2023-12-09T03:58:37.240Z,5.96
2023-12-09T04:01:05.933Z,6.26
2023-12-09T04:03:33.735Z,6.35
2023-12-09T04:06:04.612Z,6.19
2023-12-09T04:08:32.387Z,6.23
2023-12-09T04:11:00.372Z,6.26
2023-12-09T04:13:28.280Z,6.21
2023-12-09T04:15:56.032Z,6.12
2023-12-09T04:18:22.827Z,6.06
2023-12-09T04:20:50.538Z,6.11
2023-12-09T04:23:19.938Z,6.03
2023-12-09T04:25:47.599Z,6.08
2023-12-09T04:28:15.636Z,6.05
2023-12-09T04:30:43.277Z,6.14
2023-12-09T04:33:11.227Z,6.23
2023-12-09T04:35:38.929Z,6.28
2023-12-09T04:38:06.594Z,6.35
2023-12-09T04:40:35.591Z,6.42
2023-12-09T04:43:03.248Z,6.53
2023-12-09T04:45:30.926Z,6.54
2023-12-09T04:47:58.735Z,6.48
2023-12-09T04:50:26.713Z,6.39
2023-12-09T04:52:54.407Z,6.43
2023-12-09T04:55:22.077Z,6.47
2023-12-09T04:57:51.101Z,6.50
2023-12-09T05:00:19.654Z,6.55
2023-12-09T05:02:47.361Z,6.54
2023-12-09T05:05:16.324Z,6.38
2023-12-09T05:07:43.983Z,6.37
2023-12-09T05:10:13.421Z,6.27
2023-12-09T05:12:41.253Z,6.05
2023-12-09T05:15:12.074Z,6.18
2023-12-09T05:17:39.864Z,6.32
2023-12-09T05:20:10.862Z,6.34
2023-12-09T05:22:38.886Z,6.40
2023-12-09T05:25:07.631Z,6.35
2023-12-09T05:27:35.376Z,6.43
2023-12-09T05:30:03.648Z,6.44
2023-12-09T05:32:32.675Z,6.54
2023-12-09T05:35:00.321Z,6.56
2023-12-09T05:37:28.011Z,6.45
2023-12-09T05:39:55.633Z,6.40
2023-12-09T05:42:23.335Z,6.38
2023-12-09T05:44:54.403Z,6.31
2023-12-09T05:47:22.081Z,6.26
2023-12-09T05:49:51.081Z,6.20
2023-12-09T05:52:17.837Z,6.12
2023-12-09T05:54:45.477Z,6.13
2023-12-09T05:57:13.142Z,6.23
2023-12-09T05:59:40.849Z,6.25
2023-12-09T06:02:08.718Z,6.34
2023-12-09T06:04:36.442Z,6.43
2023-12-09T06:07:05.797Z,6.24
2023-12-09T06:09:33.649Z,6.12
2023-12-09T06:12:01.491Z,6.24
2023-12-09T06:14:29.213Z,6.20
2023-12-09T06:16:56.782Z,6.09
2023-12-09T06:19:24.516Z,6.34
2023-12-09T06:21:52.115Z,6.20
2023-12-09T06:24:21.126Z,6.30
2023-12-09T06:26:48.835Z,6.32
2023-12-09T06:29:16.582Z,6.37
2023-12-09T06:31:44.278Z,5.99
2023-12-09T06:34:12.138Z,6.09
2023-12-09T06:36:39.935Z,5.98
2023-12-09T06:39:07.780Z,6.16
2023-12-09T06:41:40.758Z,5.76
2023-12-09T06:44:08.581Z,6.20
2023-12-09T06:46:38.412Z,6.11
2023-12-09T06:49:06.798Z,6.10
2023-12-09T06:51:35.316Z,5.53
2023-12-09T06:54:04.094Z,5.85
2023-12-09T06:56:31.950Z,6.10
2023-12-09T06:59:01.259Z,6.13
2023-12-09T07:01:29.290Z,6.08
2023-12-09T07:03:57.593Z,5.99
2023-12-09T07:06:27.035Z,6.09
2023-12-09T07:08:55.788Z,6.11
2023-12-09T07:11:24.296Z,6.14
2023-12-09T07:13:52.684Z,6.09
2023-12-09T07:16:21.696Z,6.26
2023-12-09T07:18:52.208Z,6.41
2023-12-09T07:21:20.108Z,6.46
2023-12-09T07:23:47.762Z,6.10
2023-12-09T07:26:15.386Z,6.33
2023-12-09T07:28:43.136Z,6.37
2023-12-09T07:31:10.857Z,6.33
2023-12-09T07:33:40.078Z,6.46
2023-12-09T07:36:08.565Z,6.41
2023-12-09T07:38:36.441Z,6.42
2023-12-09T07:41:05.098Z,6.22
2023-12-09T07:43:33.197Z,6.38
2023-12-09T07:46:00.854Z,6.23
2023-12-09T07:48:28.636Z,6.48
2023-12-09T07:50:57.881Z,6.48
2023-12-09T07:53:25.590Z,6.29
2023-12-09T07:55:53.271Z,5.99
2023-12-09T07:58:21.239Z,6.01
2023-12-09T08:00:49.115Z,5.86
2023-12-09T08:03:17.016Z,6.18
2023-12-09T08:05:47.283Z,6.20
2023-12-09T08:08:16.503Z,6.39
2023-12-09T08:10:44.395Z,6.15
2023-12-09T08:13:13.480Z,6.42
2023-12-09T08:15:41.937Z,6.07
2023-12-09T08:18:09.945Z,6.48
2023-12-09T08:20:37.839Z,6.61
2023-12-09T08:23:05.665Z,6.53
2023-12-09T08:25:34.798Z,6.21
2023-12-09T08:28:02.484Z,6.54
2023-12-09T08:30:30.180Z,6.79
2023-12-09T08:32:58.189Z,6.74
2023-12-09T08:35:26.020Z,6.57
2023-12-09T08:37:53.866Z,6.22
2023-12-09T08:40:22.218Z,6.68
2023-12-09T08:42:51.493Z,6.85
2023-12-09T08:45:20.096Z,6.84
2023-12-09T08:47:48.270Z,6.84
2023-12-09T08:52:46.694Z,6.85
2023-12-09T08:55:14.462Z,6.96
2023-12-09T08:57:42.145Z,6.95
2023-12-09T09:00:12.389Z,6.91
2023-12-09T09:02:40.103Z,6.77
2023-12-09T09:05:08.520Z,6.88
2023-12-09T09:07:39.794Z,6.98
2023-12-09T09:10:08.203Z,6.96
2023-12-09T09:12:36.067Z,7.02
2023-12-09T09:15:07.160Z,6.96
2023-12-09T09:17:37.798Z,6.76
2023-12-09T09:20:06.831Z,6.73
2023-12-09T09:22:35.322Z,6.71
2023-12-09T09:25:03.634Z,6.83
2023-12-09T09:27:31.449Z,6.82
2023-12-09T09:29:59.340Z,6.82
2023-12-09T09:32:27.314Z,6.88
2023-12-09T09:34:56.673Z,6.97
2023-12-09T09:37:25.472Z,7.03
2023-12-09T09:39:53.217Z,7.14
2023-12-09T09:42:27.684Z,7.30
2023-12-09T09:45:06.601Z,7.45
2023-12-09T09:47:38.768Z,7.60
2023-12-09T09:50:09.461Z,7.53
2023-12-09T09:52:38.122Z,7.51
2023-12-09T09:55:08.096Z,7.60
2023-12-09T09:57:36.250Z,7.52
2023-12-09T10:00:13.801Z,7.39
2023-12-09T10:02:43.813Z,7.08
2023-12-09T10:05:13.842Z,7.20
2023-12-09T10:07:41.839Z,7.13
2023-12-09T10:10:10.382Z,6.80
2023-12-09T10:12:38.613Z,7.09
2023-12-09T10:15:07.714Z,6.97
2023-12-09T10:17:35.880Z,7.04
2023-12-09T10:20:07.141Z,7.14
2023-12-09T10:22:37.581Z,7.12
2023-12-09T10:25:05.952Z,7.15
2023-12-09T10:27:34.743Z,7.02
2023-12-09T10:30:03.905Z,6.91
2023-12-09T10:32:31.955Z,7.08
2023-12-09T10:35:03.424Z,7.11
2023-12-09T10:37:34.040Z,6.91
2023-12-09T10:40:04.816Z,7.30
2023-12-09T10:42:33.087Z,7.27
2023-12-09T10:45:04.278Z,7.34
2023-12-09T10:47:32.211Z,7.27
2023-12-09T10:50:00.119Z,7.17
2023-12-09T10:52:28.153Z,7.16
2023-12-09T10:54:56.013Z,7.07
2023-12-09T10:57:25.816Z,7.17
2023-12-09T10:59:54.189Z,7.01
2023-12-09T11:02:23.280Z,7.17
2023-12-09T11:04:52.002Z,7.28
2023-12-09T11:07:20.684Z,7.44
2023-12-09T11:09:48.761Z,7.24
2023-12-09T11:12:29.471Z,7.07
2023-12-09T11:15:01.931Z,6.91
2023-12-09T11:17:36.605Z,7.02
2023-12-09T11:20:12.245Z,7.04
2023-12-09T11:22:41.408Z,6.91
2023-12-09T11:25:12.258Z,6.90
2023-12-09T11:27:41.672Z,6.92
2023-12-09T11:30:30.854Z,7.08
2023-12-09T11:32:59.265Z,6.88
2023-12-09T11:35:28.004Z,7.20
2023-12-09T11:37:56.793Z,7.27
2023-12-09T11:40:24.966Z,7.31
2023-12-09T11:42:55.094Z,7.50
2023-12-09T11:45:23.401Z,7.30
2023-12-09T11:47:51.866Z,7.30
2023-12-09T11:50:19.880Z,7.34
2023-12-09T11:52:48.942Z,7.39
2023-12-09T11:55:18.055Z,7.46
2023-12-09T11:57:46.329Z,7.29
2023-12-09T12:00:16.753Z,7.51
2023-12-09T12:02:44.870Z,7.69
2023-12-09T12:05:13.630Z,7.76
2023-12-09T12:07:41.884Z,7.81
2023-12-09T12:10:11.134Z,7.83
2023-12-09T12:12:39.402Z,7.80
2023-12-09T12:15:08.647Z,7.80
2023-12-09T12:17:42.456Z,7.59
2023-12-09T12:20:13.030Z,7.66
2023-12-09T12:22:41.943Z,7.89
2023-12-09T12:25:11.291Z,7.88
2023-12-09T12:27:44.920Z,7.91
2023-12-09T12:30:14.341Z,7.79
2023-12-09T12:32:46.181Z,7.85
2023-12-09T12:35:14.036Z,7.88
2023-12-09T12:37:42.870Z,7.94
2023-12-09T12:40:12.278Z,7.74
2023-12-09T12:42:40.497Z,7.69
2023-12-09T12:45:17.623Z,7.78
2023-12-09T12:47:47.290Z,7.80
2023-12-09T12:50:15.659Z,7.84
2023-12-09T12:52:43.709Z,7.98
2023-12-09T12:55:11.683Z,8.01
2023-12-09T12:57:39.973Z,7.99
2023-12-09T13:00:12.574Z,7.90
2023-12-09T13:02:40.834Z,7.75
2023-12-09T13:05:10.304Z,7.79
2023-12-09T13:07:38.374Z,7.65
2023-12-09T13:10:07.412Z,7.64
2023-12-09T13:12:35.269Z,7.66
2023-12-09T13:15:03.548Z,7.57
2023-12-09T13:17:31.404Z,7.60
2023-12-09T13:19:59.274Z,7.65
2023-12-09T13:22:28.886Z,7.72
2023-12-09T13:24:56.912Z,7.67
2023-12-09T13:27:25.058Z,7.73
2023-12-09T13:29:52.962Z,7.73
2023-12-09T13:32:20.707Z,7.57
2023-12-09T13:34:48.504Z,7.62
2023-12-09T13:37:16.685Z,7.65
2023-12-09T13:39:46.240Z,7.66
2023-12-09T13:42:14.344Z,7.64
2023-12-09T13:44:42.550Z,7.55
2023-12-09T13:47:10.520Z,7.67
2023-12-09T13:49:38.401Z,7.65
2023-12-09T13:52:06.616Z,7.68
2023-12-09T13:54:34.722Z,7.76
2023-12-09T13:57:03.971Z,7.81
2023-12-09T13:59:31.871Z,7.86
2023-12-09T14:01:59.570Z,7.82
2023-12-09T14:04:27.596Z,7.73
2023-12-09T14:06:55.554Z,7.68
2023-12-09T14:09:24.320Z,7.71
2023-12-09T14:11:52.140Z,7.66
2023-12-09T14:14:22.312Z,7.53
2023-12-09T14:16:50.322Z,7.59
2023-12-09T14:19:19.067Z,7.71
2023-12-09T14:21:47.014Z,7.55
2023-12-09T14:24:15.190Z,7.72
2023-12-09T14:26:43.373Z,7.82
2023-12-09T14:29:11.308Z,7.75
2023-12-09T14:31:43.249Z,7.83
2023-12-09T14:34:11.617Z,7.77
2023-12-09T14:36:39.808Z,7.63
2023-12-09T14:39:10.855Z,7.51
2023-12-09T14:41:40.940Z,7.38
2023-12-09T14:44:09.409Z,7.41
2023-12-09T14:46:37.441Z,7.30
2023-12-09T14:49:07.179Z,7.22
2023-12-09T14:51:42.676Z,7.38
2023-12-09T14:54:12.364Z,7.06
2023-12-09T14:56:40.287Z,7.19
2023-12-09T14:59:08.579Z,7.27
2023-12-09T15:01:36.723Z,7.38
2023-12-09T15:04:06.367Z,7.20
2023-12-09T15:06:34.670Z,7.13
2023-12-09T15:09:04.098Z,7.22
2023-12-09T15:11:31.941Z,7.23
2023-12-09T15:13:59.688Z,7.24
2023-12-09T15:16:27.477Z,7.30
2023-12-09T15:18:55.378Z,7.31
2023-12-09T15:21:24.618Z,7.43
2023-12-09T15:23:53.671Z,7.37
2023-12-09T15:26:21.604Z,7.18
2023-12-09T15:28:50.472Z,7.21
2023-12-09T15:31:18.425Z,7.18
2023-12-09T15:33:46.332Z,7.24
2023-12-09T15:36:14.780Z,7.09
2023-12-09T15:38:44.033Z,7.07
2023-12-09T15:41:11.802Z,6.96
2023-12-09T15:43:39.649Z,7.10
2023-12-09T15:46:07.671Z,7.08
2023-12-09T15:48:35.512Z,6.90
2023-12-09T15:51:06.177Z,6.94
2023-12-09T15:53:38.071Z,6.81
2023-12-09T15:56:08.460Z,6.75
2023-12-09T15:58:36.571Z,6.73
2023-12-09T16:01:04.660Z,6.72
2023-12-09T16:03:32.476Z,6.59
2023-12-09T16:06:00.304Z,6.61
2023-12-09T16:08:28.120Z,6.57
2023-12-09T16:10:55.884Z,6.52
2023-12-09T16:13:24.988Z,6.52
2023-12-09T16:15:52.921Z,6.57
2023-12-09T16:18:20.805Z,6.44
2023-12-09T16:20:48.649Z,6.45
2023-12-09T16:23:17.087Z,6.40
2023-12-09T16:25:44.861Z,6.37
2023-12-09T16:28:12.604Z,6.40
2023-12-09T16:30:42.214Z,6.42
2023-12-09T16:33:10.351Z,6.36
2023-12-09T16:35:38.804Z,6.38
2023-12-09T16:38:08.767Z,6.39
2023-12-09T16:40:37.940Z,6.41
2023-12-09T16:43:06.239Z,6.44
2023-12-09T16:45:34.111Z,6.44
2023-12-09T16:48:03.561Z,6.50
2023-12-09T16:50:31.425Z,6.56
2023-12-09T16:52:59.136Z,6.47
2023-12-09T16:55:26.852Z,6.63
2023-12-09T16:57:55.095Z,6.62
2023-12-09T17:00:23.993Z,6.67
2023-12-09T17:02:51.896Z,6.66
2023-12-09T17:05:21.260Z,6.43
2023-12-09T17:07:50.179Z,6.56
2023-12-09T17:10:18.766Z,6.49
2023-12-09T17:12:46.682Z,6.48
2023-12-09T17:15:17.461Z,6.46
2023-12-09T17:17:45.963Z,6.58
2023-12-09T17:20:13.943Z,6.67
2023-12-09T17:22:43.130Z,6.60
2023-12-09T17:25:11.506Z,6.56
2023-12-09T17:27:39.405Z,6.57
2023-12-09T17:30:08.355Z,6.54
2023-12-09T17:32:36.427Z,6.57
2023-12-09T17:35:04.323Z,6.62
2023-12-09T17:37:32.180Z,6.62
2023-12-09T17:40:01.923Z,6.58
2023-12-09T17:42:30.552Z,6.65
2023-12-09T17:44:58.652Z,6.66
2023-12-09T17:47:26.621Z,6.76
2023-12-09T17:49:54.849Z,6.89
2023-12-09T17:52:23.131Z,6.83
2023-12-09T17:54:51.114Z,6.96
2023-12-09T17:57:20.517Z,6.98
2023-12-09T17:59:48.801Z,6.97
2023-12-09T18:02:17.402Z,6.88
2023-12-09T18:04:46.531Z,7.19
2023-12-09T18:07:14.562Z,7.18
2023-12-09T18:09:42.852Z,7.13
2023-12-09T18:12:11.438Z,7.07
2023-12-09T18:14:40.866Z,7.09
2023-12-09T18:17:09.240Z,6.80
2023-12-09T18:19:37.270Z,6.81
2023-12-09T18:22:05.577Z,6.70
2023-12-09T18:24:33.519Z,6.72
2023-12-09T18:27:01.461Z,6.68
2023-12-09T18:29:29.457Z,6.75
2023-12-09T18:31:58.801Z,6.73
2023-12-09T18:34:26.722Z,6.70
2023-12-09T18:36:54.649Z,6.77
2023-12-09T18:39:23.906Z,6.81
2023-12-09T18:41:51.787Z,6.82
2023-12-09T18:44:19.698Z,6.79
2023-12-09T18:46:47.569Z,6.88
2023-12-09T18:49:16.893Z,6.97
2023-12-09T18:51:45.027Z,7.08
2023-12-09T18:54:12.889Z,7.18
2023-12-09T18:56:40.898Z,7.27
2023-12-09T18:59:08.903Z,7.36
2023-12-09T19:01:38.775Z,7.38
2023-12-09T19:04:07.043Z,7.41
2023-12-09T19:06:45.493Z,7.47
2023-12-09T19:09:17.978Z,7.52
2023-12-09T19:11:46.753Z,7.59
2023-12-09T19:14:14.794Z,7.63
2023-12-09T19:16:43.034Z,7.74
2023-12-09T19:19:11.268Z,7.75
2023-12-09T19:21:41.735Z,7.85
2023-12-09T19:24:10.674Z,7.89
2023-12-09T19:26:38.926Z,7.95
2023-12-09T19:29:06.753Z,8.00
2023-12-09T19:31:34.586Z,8.02
2023-12-09T19:34:02.450Z,8.18
2023-12-09T19:36:30.283Z,8.26
2023-12-09T19:39:00.009Z,8.22
2023-12-09T19:41:27.728Z,8.25
2023-12-09T19:43:55.506Z,8.30
2023-12-09T19:46:23.586Z,8.44
2023-12-09T19:48:50.504Z,8.60
2023-12-09T19:51:18.232Z,8.63
2023-12-09T19:53:46.122Z,8.66
2023-12-09T19:56:17.019Z,8.68
2023-12-09T19:58:44.823Z,8.70
2023-12-09T20:01:13.519Z,8.70
2023-12-09T20:03:41.628Z,8.75
2023-12-09T20:06:09.888Z,8.84
2023-12-09T20:08:37.613Z,8.89
2023-12-09T20:11:06.314Z,8.96
2023-12-09T20:13:35.418Z,9.00
2023-12-09T20:16:04.095Z,9.14
2023-12-09T20:18:32.168Z,9.32
2023-12-09T20:21:00.036Z,9.42
2023-12-09T20:23:27.795Z,9.42
2023-12-09T20:25:55.500Z,9.48
2023-12-09T20:28:23.259Z,9.45
2023-12-09T20:30:53.886Z,9.46
2023-12-09T20:33:22.033Z,9.41
2023-12-09T20:35:50.022Z,9.49
2023-12-09T20:38:18.179Z,9.48
2023-12-09T20:40:46.175Z,9.47
2023-12-09T20:43:14.012Z,9.53
2023-12-09T20:45:41.766Z,9.60
2023-12-09T20:48:11.130Z,9.67
2023-12-09T20:50:38.990Z,9.73
2023-12-09T20:53:10.682Z,9.66
2023-12-09T20:55:38.973Z,9.72
2023-12-09T20:58:06.783Z,9.72
2023-12-09T21:00:34.557Z,9.70
2023-12-09T21:03:04.199Z,9.75
2023-12-09T21:05:33.450Z,9.75
2023-12-09T21:08:01.146Z,9.86
2023-12-09T21:10:29.064Z,9.88
2023-12-09T21:12:57.671Z,9.82
2023-12-09T21:15:26.800Z,9.86
2023-12-09T21:17:54.837Z,9.81
2023-12-09T21:20:22.700Z,9.82
2023-12-09T21:22:52.165Z,9.89
2023-12-09T21:25:19.951Z,9.89
2023-12-09T21:27:48.058Z,9.95
2023-12-09T21:30:16.367Z,10.03
2023-12-09T21:32:44.094Z,10.07
2023-12-09T21:35:12.099Z,10.05
2023-12-09T21:37:39.746Z,10.02
2023-12-09T21:40:11.054Z,10.01
2023-12-09T21:42:38.944Z,10.05
2023-12-09T21:45:07.999Z,10.08
2023-12-09T21:47:37.629Z,10.09
2023-12-09T21:50:07.119Z,10.11
2023-12-09T21:52:34.925Z,10.12
2023-12-09T21:55:02.739Z,10.05
2023-12-09T21:57:32.785Z,10.05
2023-12-09T22:00:00.947Z,10.01
2023-12-09T22:02:28.246Z,9.94
2023-12-09T22:04:56.189Z,9.90
2023-12-09T22:07:24.111Z,9.83
2023-12-09T22:09:51.857Z,9.94
2023-12-09T22:12:19.904Z,9.85
2023-12-09T22:14:48.988Z,9.65
2023-12-09T22:17:17.606Z,9.67
2023-12-09T22:19:45.584Z,9.52
2023-12-09T22:22:13.397Z,9.55
2023-12-09T22:24:41.310Z,9.55
2023-12-09T22:27:09.148Z,9.52
2023-12-09T22:29:37.088Z,9.53
2023-12-09T22:32:07.139Z,9.38
2023-12-09T22:34:35.865Z,9.43
2023-12-09T22:37:03.791Z,9.45
2023-12-09T22:39:31.656Z,9.37
2023-12-09T22:41:59.704Z,9.30
2023-12-09T22:44:27.499Z,9.39
2023-12-09T22:46:56.059Z,9.37
2023-12-09T22:49:25.263Z,9.41
2023-12-09T22:51:53.180Z,9.39
2023-12-09T22:54:21.137Z,9.41
2023-12-09T22:56:49.077Z,9.44
2023-12-09T22:59:16.948Z,9.53
2023-12-09T23:01:46.220Z,9.50
2023-12-09T23:04:14.077Z,9.46
2023-12-09T23:06:43.751Z,9.50
2023-12-09T23:09:11.523Z,9.52
2023-12-09T23:11:39.504Z,9.63
2023-12-09T23:14:10.336Z,9.56
2023-12-09T23:16:38.105Z,9.56
2023-12-09T23:19:06.093Z,9.58
2023-12-09T23:21:34.096Z,9.48
2023-12-09T23:24:03.455Z,9.52
2023-12-09T23:26:31.395Z,9.52
2023-12-09T23:28:59.079Z,9.56
2023-12-09T23:31:32.009Z,9.53
2023-12-09T23:34:07.434Z,9.55
2023-12-09T23:36:35.205Z,9.56
2023-12-09T23:39:04.783Z,9.54
2023-12-09T23:41:32.721Z,9.58
2023-12-09T23:44:00.488Z,9.43
2023-12-09T23:46:28.359Z,9.49
2023-12-09T23:48:57.075Z,9.53
2023-12-09T23:51:25.261Z,9.51
2023-12-09T23:53:52.937Z,9.53
2023-12-09T23:56:24.091Z,9.54
2023-12-09T23:58:51.854Z,9.52
